Time;durP1;ratioP1;P1;durP2;ratioP2;P2;SDS_P1;SDS_P2;PMS_P1;PMS_P2;Temp;Humidity;BMP_temperature;BMP_pressure;BME280_temperature;BME280_humidity;BME280_pressure;Samples;Min_cycle;Max_cycle;Signal;HPM_P1;HPM_P2
2021/12/15 00:01:10;;;;;;;;;;;;;;;;;;2211292;59;1191;-73
2021/12/15 00:03:43;;;;;;;;;;;;;;;;;;2210212;59;1481;-73
2021/12/15 00:06:19;;;;;;;;;;;;;;;;;;2210575;59;1219;-73
2021/12/15 00:08:54;;;;;;;;;;;;;;;;;;2209991;59;1449;-73
2021/12/15 00:11:33;;;;;;;;;;;;;;;;;;2210246;59;1936;-73
2021/12/15 00:14:09;;;;;;;;;;;;;;;;;;2210546;67;1222;-73
2021/12/15 00:16:43;;;;;;;;;;;;;;;;;;2210496;67;1241;-73
2021/12/15 00:19:16;;;;;;;;;;;;;;;;;;2211218;59;1213;-73
2021/12/15 00:21:49;;;;;;;;;;;;;;;;;;2210421;67;2147;-73
2021/12/15 00:24:22;;;;;;;;;;;;;;;;;;2210979;59;1431;-73
2021/12/15 00:26:57;;;;;;;;;;;;;;;;;;2210481;59;1273;-73
2021/12/15 00:29:33;;;;;;;;;;;;;;;;;;2210310;59;1929;-73
2021/12/15 00:32:06;;;;;;;;;;;;;;;;;;2210257;59;1701;-73
2021/12/15 00:34:41;;;;;;;;;;;;;;;;;;2209960;67;1248;-73
2021/12/15 00:37:14;;;;;;;;;;;;;;;;;;2209856;67;1248;-73
2021/12/15 00:39:47;;;;;;;;;;;;;;;;;;2208947;59;1121;-73
2021/12/15 00:42:20;;;;;;;;;;;;;;;;;;2211584;59;1155;-73
2021/12/15 00:44:56;;;;;;;;;;;;;;;;;;2211608;67;1222;-73
2021/12/15 00:47:29;;;;;;;;;;;;;;;;;;2211133;67;1323;-73
2021/12/15 00:50:06;;;;;;;;;;;;;;;;;;2210347;67;1933;-73
2021/12/15 00:52:40;;;;;;;;;;;;;;;;;;2208715;67;1290;-73
2021/12/15 00:55:15;;;;;;;;;;;;;;;;;;2210460;59;1975;-73
2021/12/15 00:57:49;;;;;;;;;;;;;;;;;;2210074;59;1240;-73
2021/12/15 01:00:26;;;;;;;;;;;;;;;;;;2209303;59;1244;-73
2021/12/15 01:03:00;;;;;;;;;;;;;;;;;;2208859;59;1165;-73
2021/12/15 01:05:35;;;;;;;;;;;;;;;;;;2209056;67;1256;-73
2021/12/15 01:08:11;;;;;;;;;;;;;;;;;;2209904;59;1259;-73
2021/12/15 01:10:58;;;;;;;;;;;;;;;;;;2210341;67;1910;-73
2021/12/15 01:22:03;;;;;;;;;;;;;;;;;;2211389;67;1200;-73
2021/12/15 01:24:36;;;;;;;;;;;;;;;;;;2209361;59;1346;-73
2021/12/15 01:27:09;;;;;;;;;;;;;;;;;;2209248;59;1243;-73
2021/12/15 01:29:42;;;;;;;;;;;;;;;;;;2210100;59;1979;-73
2021/12/15 01:32:20;;;;;;;;;;;;;;;;;;2209155;59;1678;-73
2021/12/15 01:34:53;;;;;;;;;;;;;;;;;;2208674;59;1936;-73
2021/12/15 01:37:26;;;;;;;;;;;;;;;;;;2210077;59;1239;-73
2021/12/15 01:40:00;;;;;;;;;;;;;;;;;;2209665;59;1240;-73
2021/12/15 01:42:34;;;;;;;;;;;;;;;;;;2210219;67;1140;-73
2021/12/15 01:48:07;;;;;;;;;;;;;;;;;;2209235;59;1479;-73
2021/12/15 01:50:41;;;;;;;;;;;;;;;;;;2209005;67;1930;-74
2021/12/15 01:53:14;;;;;;;;;;;;;;;;;;2210582;67;1280;-73
2021/12/15 01:55:47;;;;;;;;;;;;;;;;;;2210678;59;1663;-73
2021/12/15 01:58:20;;;;;;;;;;;;;;;;;;2210488;67;1235;-73
2021/12/15 02:00:55;;;;;;;;;;;;;;;;;;2211617;67;1281;-73
2021/12/15 02:03:31;;;;;;;;;;;;;;;;;;2210994;67;1288;-73
2021/12/15 02:08:43;;;;;;;;;;;;;;;;;;2213021;59;1778;-70
2021/12/15 02:11:17;;;;;;;;;;;;;;;;;;2216272;58;1994;-70
2021/12/15 02:13:51;;;;;;;;;;;;;;;;;;2216566;66;1084;-70
2021/12/15 02:16:24;;;;;;;;;;;;;;;;;;2216889;66;1302;-70
2021/12/15 02:19:01;;;;;;;;;;;;;;;;;;2217756;58;1427;-71
2021/12/15 02:21:36;;;;;;;;;;;;;;;;;;2214512;59;1752;-70
2021/12/15 02:24:10;;;;;;;;;;;;;;;;;;2217275;58;1404;-70
2021/12/15 02:26:49;;;;;;;;;;;;;;;;;;2212951;67;1385;-70
2021/12/15 02:29:22;;;;;;;;;;;;;;;;;;2216608;58;1328;-71
2021/12/15 02:32:10;;;;;;;;;;;;;;;;;;2217128;58;1975;-70
2021/12/15 02:37:04;;;;;;;;;;;;;;;;;;2217765;66;1086;-70
2021/12/15 02:37:50;;;;;;;;;;;;;;;;;;2214269;59;1528;-70
2021/12/15 02:40:24;;;;;;;;;;;;;;;;;;2218083;59;1142;-70
2021/12/15 02:42:57;;;;;;;;;;;;;;;;;;2218226;66;1243;-70
2021/12/15 02:45:31;;;;;;;;;;;;;;;;;;2217260;66;1061;-70
2021/12/15 02:48:05;;;;;;;;;;;;;;;;;;2217731;66;1427;-70
2021/12/15 02:50:38;;;;;;;;;;;;;;;;;;2218060;66;1941;-70
2021/12/15 02:53:16;;;;;;;;;;;;;;;;;;2217741;66;1256;-70
2021/12/15 02:55:50;;;;;;;;;;;;;;;;;;2217829;58;1789;-70
2021/12/15 02:58:23;;;;;;;;;;;;;;;;;;2219448;66;1264;-70
2021/12/15 03:01:02;;;;;;;;;;;;;;;;;;2218296;66;1121;-70
2021/12/15 03:04:08;;;;;;;;;;;;;;;;;;2216281;66;1329;-70
2021/12/15 03:06:50;;;;;;;;;;;;;;;;;;2217605;59;1148;-69
2021/12/15 03:15:29;;;;;;;;;;;;;;;;;;2217647;66;1178;-70
2021/12/15 03:18:04;;;;;;;;;;;;;;;;;;2214858;58;2068;-70
2021/12/15 03:20:40;;;;;;;;;;;;;;;;;;2218271;58;1521;-70
2021/12/15 03:23:15;;;;;;;;;;;;;;;;;;2218437;59;1330;-70
2021/12/15 03:25:51;;;;;;;;;;;;;;;;;;2216494;66;1165;-70
2021/12/15 03:34:36;;;;;;;;;;;;;;;;;;2218348;66;1106;-70
2021/12/15 03:37:23;;;;;;;;;;;;;;;;;;2218154;66;1228;-70
2021/12/15 03:39:59;;;;;;;;;;;;;;;;;;2217346;66;1248;-70
2021/12/15 03:42:40;;;;;;;;;;;;;;;;;;2218763;59;1206;-70
2021/12/15 03:45:15;;;;;;;;;;;;;;;;;;2218855;66;1089;-70
2021/12/15 03:47:51;;;;;;;;;;;;;;;;;;2213574;63;1319;-70
2021/12/15 03:50:26;;;;;;;;;;;;;;;;;;2218055;66;1924;-70
2021/12/15 03:53:02;;;;;;;;;;;;;;;;;;2213998;66;1267;-70
2021/12/15 03:55:37;;;;;;;;;;;;;;;;;;2217289;66;1215;-71
2021/12/15 03:58:14;;;;;;;;;;;;;;;;;;2218074;66;1210;-70
2021/12/15 04:00:49;;;;;;;;;;;;;;;;;;2218582;58;1246;-70
2021/12/15 04:03:24;;;;;;;;;;;;;;;;;;2217104;66;1172;-70
2021/12/15 04:06:09;;;;;;;;;;;;;;;;;;2218236;66;1315;-70
2021/12/15 04:08:43;;;;;;;;;;;;;;;;;;2217997;59;1305;-70
2021/12/15 04:11:18;;;;;;;;;;;;;;;;;;2216129;59;1928;-70
2021/12/15 04:13:59;;;;;;;;;;;;;;;;;;2217292;66;1130;-70
2021/12/15 04:16:57;;;;;;;;;;;;;;;;;;2216801;58;1292;-70
2021/12/15 04:19:32;;;;;;;;;;;;;;;;;;2218264;58;1544;-70
2021/12/15 04:22:06;;;;;;;;;;;;;;;;;;2216507;66;1206;-70
2021/12/15 04:24:39;;;;;;;;;;;;;;;;;;2217650;66;2018;-70
2021/12/15 04:27:12;;;;;;;;;;;;;;;;;;2216912;66;1214;-70
2021/12/15 04:29:49;;;;;;;;;;;;;;;;;;2217637;58;1465;-71
2021/12/15 04:32:26;;;;;;;;;;;;;;;;;;2218280;58;1987;-70
2021/12/15 04:34:59;;;;;;;;;;;;;;;;;;2216704;66;1235;-70
2021/12/15 04:37:33;;;;;;;;;;;;;;;;;;2217775;66;1219;-70
2021/12/15 04:40:07;;;;;;;;;;;;;;;;;;2218628;66;1236;-70
2021/12/15 04:42:43;;;;;;;;;;;;;;;;;;2218674;59;1320;-70
2021/12/15 04:45:21;;;;;;;;;;;;;;;;;;2217860;66;1082;-70
2021/12/15 04:47:55;;;;;;;;;;;;;;;;;;2217954;66;1227;-70
2021/12/15 04:50:30;;;;;;;;;;;;;;;;;;2217052;59;1282;-70
2021/12/15 04:53:04;;;;;;;;;;;;;;;;;;2217461;66;1931;-70
2021/12/15 04:55:39;;;;;;;;;;;;;;;;;;2217187;66;1133;-70
2021/12/15 04:58:15;;;;;;;;;;;;;;;;;;2217258;58;1787;-70
2021/12/15 05:00:54;;;;;;;;;;;;;;;;;;2217501;66;1053;-70
2021/12/15 05:04:07;;;;;;;;;;;;;;;;;;2212770;59;1835;-70
2021/12/15 05:06:41;;;;;;;;;;;;;;;;;;2216924;59;1390;-70
2021/12/15 05:09:14;;;;;;;;;;;;;;;;;;2217443;66;1112;-70
2021/12/15 05:11:50;;;;;;;;;;;;;;;;;;2217632;58;1943;-70
2021/12/15 05:14:24;;;;;;;;;;;;;;;;;;2217713;59;1370;-70
2021/12/15 05:17:01;;;;;;;;;;;;;;;;;;2218337;58;1867;-70
2021/12/15 05:19:35;;;;;;;;;;;;;;;;;;2217528;58;1471;-70
2021/12/15 05:22:10;;;;;;;;;;;;;;;;;;2216970;66;1227;-70
2021/12/15 05:24:44;;;;;;;;;;;;;;;;;;2215699;59;1224;-70
2021/12/15 05:27:18;;;;;;;;;;;;;;;;;;2217928;58;1276;-70
2021/12/15 05:29:52;;;;;;;;;;;;;;;;;;2216912;58;1466;-71
2021/12/15 05:32:28;;;;;;;;;;;;;;;;;;2218141;58;1935;-70
2021/12/15 05:35:01;;;;;;;;;;;;;;;;;;2217559;66;1207;-70
2021/12/15 05:37:35;;;;;;;;;;;;;;;;;;2217994;66;1188;-70
2021/12/15 05:40:10;;;;;;;;;;;;;;;;;;2216164;59;1105;-70
2021/12/15 05:42:43;;;;;;;;;;;;;;;;;;2217681;59;1210;-70
2021/12/15 05:45:17;;;;;;;;;;;;;;;;;;2217449;66;1295;-70
2021/12/15 05:47:53;;;;;;;;;;;;;;;;;;2217503;59;1453;-70
2021/12/15 05:50:28;;;;;;;;;;;;;;;;;;2217919;66;1276;-70
2021/12/15 05:53:02;;;;;;;;;;;;;;;;;;2217626;59;1979;-70
2021/12/15 05:55:36;;;;;;;;;;;;;;;;;;2217141;66;1224;-70
2021/12/15 05:58:10;;;;;;;;;;;;;;;;;;2217711;59;1210;-70
2021/12/15 06:00:44;;;;;;;;;;;;;;;;;;2217299;66;1207;-70
2021/12/15 06:03:21;;;;;;;;;;;;;;;;;;2217955;59;1320;-70
2021/12/15 06:05:54;;;;;;;;;;;;;;;;;;2217684;66;1098;-70
2021/12/15 06:08:28;;;;;;;;;;;;;;;;;;2218255;59;1191;-70
2021/12/15 06:11:01;;;;;;;;;;;;;;;;;;2217340;59;1073;-70
2021/12/15 06:13:36;;;;;;;;;;;;;;;;;;2217066;58;2346;-70
2021/12/15 06:16:10;;;;;;;;;;;;;;;;;;2218122;66;1395;-70
2021/12/15 06:18:47;;;;;;;;;;;;;;;;;;2216320;59;1441;-71
2021/12/15 06:21:22;;;;;;;;;;;;;;;;;;2218938;59;1830;-70
2021/12/15 06:23:56;;;;;;;;;;;;;;;;;;2217780;66;1436;-70
2021/12/15 06:26:29;;;;;;;;;;;;;;;;;;2216668;59;1227;-70
2021/12/15 06:29:03;;;;;;;;;;;;;;;;;;2218437;59;1075;-70
2021/12/15 06:31:38;;;;;;;;;;;;;;;;;;2218061;58;1984;-70
2021/12/15 06:34:18;;;;;;;;;;;;;;;;;;2216703;66;1181;-70
2021/12/15 06:36:53;;;;;;;;;;;;;;;;;;2217462;58;1701;-70
2021/12/15 06:39:27;;;;;;;;;;;;;;;;;;2215454;66;1155;-70
2021/12/15 06:42:00;;;;;;;;;;;;;;;;;;2218001;58;1642;-70
2021/12/15 06:44:34;;;;;;;;;;;;;;;;;;2215888;58;1281;-70
2021/12/15 06:47:37;;;;;;;;;;;;;;;;;;2217033;58;2131;-70
2021/12/15 06:58:43;;;;;;;;;;;;;;;;;;2218742;59;1602;-70
2021/12/15 07:01:17;;;;;;;;;;;;;;;;;;2216818;59;1225;-70
2021/12/15 07:03:51;;;;;;;;;;;;;;;;;;2216403;66;1211;-70
2021/12/15 07:06:27;;;;;;;;;;;;;;;;;;2216309;59;1286;-70
2021/12/15 07:09:00;;;;;;;;;;;;;;;;;;2217864;66;1113;-70
2021/12/15 07:11:33;;;;;;;;;;;;;;;;;;2215573;59;1980;-70
2021/12/15 07:14:07;;;;;;;;;;;;;;;;;;2217389;66;1431;-70
2021/12/15 07:16:44;;;;;;;;;;;;;;;;;;2216559;66;1279;-70
2021/12/15 07:19:29;;;;;;;;;;;;;;;;;;2216854;58;1378;-70
2021/12/15 07:22:15;;;;;;;;;;;;;;;;;;2216223;59;1171;-70
2021/12/15 07:24:49;;;;;;;;;;;;;;;;;;2219034;66;1114;-70
2021/12/15 07:27:23;;;;;;;;;;;;;;;;;;2218603;59;1272;-70
2021/12/15 07:29:56;;;;;;;;;;;;;;;;;;2216237;59;1662;-70
2021/12/15 07:32:29;;;;;;;;;;;;;;;;;;2219439;66;1960;-69
2021/12/15 07:35:03;;;;;;;;;;;;;;;;;;2218044;59;1114;-70
2021/12/15 07:37:39;;;;;;;;;;;;;;;;;;2218369;59;1286;-70
2021/12/15 07:40:18;;;;;;;;;;;;;;;;;;2217987;66;1128;-70
2021/12/15 07:43:03;;;;;;;;;;;;;;;;;;2217239;66;1204;-70
2021/12/15 07:45:38;;;;;;;;;;;;;;;;;;2216884;59;1082;-70
2021/12/15 07:48:13;;;;;;;;;;;;;;;;;;2217080;66;1770;-70
2021/12/15 07:50:49;;;;;;;;;;;;;;;;;;2216487;58;1213;-70
2021/12/15 07:53:29;;;;;;;;;;;;;;;;;;2216888;58;1933;-70
2021/12/15 07:58:59;;;;;;;;;;;;;;;;;;2217734;66;1257;-70
2021/12/15 08:01:54;;;;;;;;;;;;;;;;;;2216182;59;2009;-70
2021/12/15 08:04:32;;;;;;;;;;;;;;;;;;2216182;66;1223;-70
2021/12/15 08:07:06;;;;;;;;;;;;;;;;;;2219127;53;3550;-70
2021/12/15 08:09:41;;;;;;;;;;;;;;;;;;2216851;59;1304;-70
2021/12/15 08:12:15;;;;;;;;;;;;;;;;;;2214368;58;1983;-70
2021/12/15 08:14:48;;;;;;;;;;;;;;;;;;2216362;59;1056;-70
2021/12/15 08:17:21;;;;;;;;;;;;;;;;;;2216018;59;1457;-70
2021/12/15 08:19:54;;;;;;;;;;;;;;;;;;2216418;59;2499;-70
2021/12/15 08:22:27;;;;;;;;;;;;;;;;;;2214618;59;2291;-70
2021/12/15 08:25:04;;;;;;;;;;;;;;;;;;2215765;59;1295;-70
2021/12/15 08:27:37;;;;;;;;;;;;;;;;;;2216524;59;1213;-70
2021/12/15 08:30:11;;;;;;;;;;;;;;;;;;2216752;58;1553;-70
2021/12/15 08:32:44;;;;;;;;;;;;;;;;;;2217428;59;1929;-70
2021/12/15 08:35:18;;;;;;;;;;;;;;;;;;2215920;59;1220;-70
2021/12/15 08:37:52;;;;;;;;;;;;;;;;;;2217648;66;1243;-70
2021/12/15 08:40:28;;;;;;;;;;;;;;;;;;2216477;66;1114;-70
2021/12/15 08:43:02;;;;;;;;;;;;;;;;;;2213620;66;2005;-70
2021/12/15 08:45:36;;;;;;;;;;;;;;;;;;2216678;59;1128;-70
2021/12/15 08:48:10;;;;;;;;;;;;;;;;;;2216224;59;1301;-70
2021/12/15 08:50:44;;;;;;;;;;;;;;;;;;2217989;59;1339;-70
2021/12/15 08:53:17;;;;;;;;;;;;;;;;;;2216598;66;1932;-70
2021/12/15 08:55:53;;;;;;;;;;;;;;;;;;2217746;59;1142;-70
2021/12/15 08:58:27;;;;;;;;;;;;;;;;;;2217902;59;1298;-70
2021/12/15 09:01:00;;;;;;;;;;;;;;;;;;2215626;66;1216;-70
2021/12/15 09:03:35;;;;;;;;;;;;;;;;;;2216442;66;1278;-70
2021/12/15 09:06:09;;;;;;;;;;;;;;;;;;2216115;59;1139;-70
2021/12/15 09:08:43;;;;;;;;;;;;;;;;;;2217134;59;1080;-70
2021/12/15 09:11:20;;;;;;;;;;;;;;;;;;2216043;66;1117;-70
2021/12/15 09:13:54;;;;;;;;;;;;;;;;;;2216941;66;1972;-70
2021/12/15 09:16:28;;;;;;;;;;;;;;;;;;2215345;66;1200;-70
2021/12/15 09:19:02;;;;;;;;;;;;;;;;;;2216644;58;1414;-70
2021/12/15 09:21:36;;;;;;;;;;;;;;;;;;2215900;58;2775;-70
2021/12/15 09:24:09;;;;;;;;;;;;;;;;;;2215265;59;2570;-70
2021/12/15 09:26:45;;;;;;;;;;;;;;;;;;2217734;59;1164;-70
2021/12/15 09:29:19;;;;;;;;;;;;;;;;;;2217316;59;1471;-70
2021/12/15 09:31:53;;;;;;;;;;;;;;;;;;2215898;59;1494;-70
2021/12/15 09:34:26;;;;;;;;;;;;;;;;;;2215548;58;1928;-70
2021/12/15 09:37:02;;;;;;;;;;;;;;;;;;2217289;59;1183;-70
2021/12/15 09:39:36;;;;;;;;;;;;;;;;;;2217136;66;1217;-71
2021/12/15 09:42:16;;;;;;;;;;;;;;;;;;2217170;59;1260;-70
2021/12/15 09:44:51;;;;;;;;;;;;;;;;;;2216486;59;1198;-70
2021/12/15 09:47:41;;;;;;;;;;;;;;;;;;2215980;59;1274;-70
2021/12/15 09:56:39;;;;;;;;;;;;;;;;;;2217685;58;1144;-70
2021/12/15 10:02:24;;;;;;;;;;;;;;;;;;2216743;66;1347;-71
2021/12/15 10:05:09;;;;;;;;;;;;;;;;;;2217326;66;1260;-70
2021/12/15 10:19:22;;;;;;;;;;;;;;;;;;2216692;58;1679;-71
2021/12/15 10:22:00;;;;;;;;;;;;;;;;;;2215986;59;1908;-70
2021/12/15 10:24:35;;;;;;;;;;;;;;;;;;2216043;58;1239;-70
2021/12/15 10:27:09;;;;;;;;;;;;;;;;;;2216112;59;1129;-70
2021/12/15 10:29:57;;;;;;;;;;;;;;;;;;2216523;58;1328;-70
2021/12/15 10:32:35;;;;;;;;;;;;;;;;;;2216378;59;1233;-70
2021/12/15 10:35:10;;;;;;;;;;;;;;;;;;2216148;59;1188;-70
2021/12/15 10:37:44;;;;;;;;;;;;;;;;;;2216698;59;1203;-70
2021/12/15 10:40:20;;;;;;;;;;;;;;;;;;2217448;66;1181;-70
2021/12/15 10:43:02;;;;;;;;;;;;;;;;;;2217872;66;1213;-70
2021/12/15 10:45:37;;;;;;;;;;;;;;;;;;2216587;66;1140;-70
2021/12/15 10:48:22;;;;;;;;;;;;;;;;;;2216163;59;1194;-69
2021/12/15 10:50:55;;;;;;;;;;;;;;;;;;2217250;59;1155;-70
2021/12/15 10:53:35;;;;;;;;;;;;;;;;;;2214399;66;1919;-70
2021/12/15 10:56:12;;;;;;;;;;;;;;;;;;2218673;66;1307;-70
2021/12/15 10:58:48;;;;;;;;;;;;;;;;;;2216321;66;1187;-70
2021/12/15 11:01:36;;;;;;;;;;;;;;;;;;2216406;66;1283;-70
2021/12/15 11:04:39;;;;;;;;;;;;;;;;;;2218035;58;1261;-70
2021/12/15 11:07:23;;;;;;;;;;;;;;;;;;2206600;59;1191;-70
2021/12/15 11:09:58;;;;;;;;;;;;;;;;;;2216431;66;1394;-70
2021/12/15 11:12:33;;;;;;;;;;;;;;;;;;2217451;58;1234;-70
2021/12/15 11:15:09;;;;;;;;;;;;;;;;;;2217730;59;1945;-70
2021/12/15 11:17:43;;;;;;;;;;;;;;;;;;2217024;66;1203;-70
2021/12/15 11:20:20;;;;;;;;;;;;;;;;;;2217973;58;1719;-71
2021/12/15 11:23:02;;;;;;;;;;;;;;;;;;2217293;66;1282;-70
2021/12/15 11:25:38;;;;;;;;;;;;;;;;;;2218146;59;1442;-70
2021/12/15 11:28:19;;;;;;;;;;;;;;;;;;2217821;59;1278;-70
2021/12/15 11:30:55;;;;;;;;;;;;;;;;;;2217805;58;1591;-70
2021/12/15 11:33:30;;;;;;;;;;;;;;;;;;2216616;58;1931;-70
2021/12/15 11:36:04;;;;;;;;;;;;;;;;;;2216976;58;1551;-70
2021/12/15 11:38:41;;;;;;;;;;;;;;;;;;2216598;58;1574;-70
2021/12/15 11:41:16;;;;;;;;;;;;;;;;;;2217209;58;1493;-70
2021/12/15 11:43:50;;;;;;;;;;;;;;;;;;2216079;58;1696;-70
2021/12/15 11:46:26;;;;;;;;;;;;;;;;;;2216838;58;1610;-70
2021/12/15 11:49:01;;;;;;;;;;;;;;;;;;2216828;58;2394;-70
2021/12/15 11:51:36;;;;;;;;;;;;;;;;;;2217147;59;1470;-70
2021/12/15 11:54:21;;;;;;;;;;;;;;;;;;2216532;59;1933;-70
2021/12/15 11:56:55;;;;;;;;;;;;;;;;;;2217345;58;1332;-70
2021/12/15 11:59:30;;;;;;;;;;;;;;;;;;2216891;59;1217;-70
2021/12/15 12:02:08;;;;;;;;;;;;;;;;;;2218153;59;1199;-70
2021/12/15 12:04:42;;;;;;;;;;;;;;;;;;2216879;58;1476;-70
2021/12/15 12:07:26;;;;;;;;;;;;;;;;;;2217779;58;1236;-70
2021/12/15 12:10:03;;;;;;;;;;;;;;;;;;2216545;66;1327;-70
2021/12/15 12:12:40;;;;;;;;;;;;;;;;;;2217680;58;1309;-70
2021/12/15 12:15:15;;;;;;;;;;;;;;;;;;2217885;66;1940;-70
2021/12/15 12:17:49;;;;;;;;;;;;;;;;;;2215691;66;1226;-70
2021/12/15 12:20:23;;;;;;;;;;;;;;;;;;2218883;58;2034;-70
2021/12/15 12:22:58;;;;;;;;;;;;;;;;;;2217598;58;1369;-70
2021/12/15 12:25:37;;;;;;;;;;;;;;;;;;2217755;66;1239;-70
2021/12/15 12:28:12;;;;;;;;;;;;;;;;;;2217241;66;1414;-70
2021/12/15 12:30:46;;;;;;;;;;;;;;;;;;2218187;58;1577;-70
2021/12/15 12:33:21;;;;;;;;;;;;;;;;;;2214197;66;1933;-70
2021/12/15 12:35:56;;;;;;;;;;;;;;;;;;2218366;58;1180;-70
2021/12/15 12:38:31;;;;;;;;;;;;;;;;;;2218269;66;1281;-70
2021/12/15 12:41:11;;;;;;;;;;;;;;;;;;2217871;59;1197;-70
2021/12/15 12:43:46;;;;;;;;;;;;;;;;;;2217826;59;1205;-70
2021/12/15 12:46:23;;;;;;;;;;;;;;;;;;2218574;66;1293;-70
2021/12/15 12:49:22;;;;;;;;;;;;;;;;;;2218393;66;1069;-70
2021/12/15 12:59:22;;;;;;;;;;;;;;;;;;2217151;59;1225;-70
2021/12/15 13:00:57;;;;;;;;;;;;;;;;;;2218708;66;1562;-70
2021/12/15 13:03:34;;;;;;;;;;;;;;;;;;2218554;59;1191;-70
2021/12/15 13:06:09;;;;;;;;;;;;;;;;;;2218568;66;1221;-70
2021/12/15 13:08:43;;;;;;;;;;;;;;;;;;2216766;58;1215;-70
2021/12/15 13:11:18;;;;;;;;;;;;;;;;;;2216823;66;1252;-70
2021/12/15 13:13:57;;;;;;;;;;;;;;;;;;2218373;59;1927;-70
2021/12/15 13:16:33;;;;;;;;;;;;;;;;;;2217112;66;1362;-70
2021/12/15 13:19:13;;;;;;;;;;;;;;;;;;2216181;58;1471;-70
2021/12/15 13:22:04;;;;;;;;;;;;;;;;;;2217556;58;1719;-70
2021/12/15 13:30:34;;;;;;;;;;;;;;;;;;2216207;58;1497;-70
2021/12/15 13:33:12;;;;;;;;;;;;;;;;;;2216100;59;1153;-70
2021/12/15 13:35:53;;;;;;;;;;;;;;;;;;2217100;59;1983;-70
2021/12/15 13:38:32;;;;;;;;;;;;;;;;;;2217708;59;1256;-70
2021/12/15 13:41:25;;;;;;;;;;;;;;;;;;2215217;66;1173;-70
2021/12/15 13:44:19;;;;;;;;;;;;;;;;;;2216733;59;1166;-71
2021/12/15 13:46:56;;;;;;;;;;;;;;;;;;2216914;66;1268;-70
2021/12/15 13:49:42;;;;;;;;;;;;;;;;;;2218764;66;1161;-70
2021/12/15 13:52:20;;;;;;;;;;;;;;;;;;2216757;59;1148;-70
2021/12/15 13:54:58;;;;;;;;;;;;;;;;;;2217186;66;1931;-70
2021/12/15 13:57:33;;;;;;;;;;;;;;;;;;2217421;59;1248;-70
2021/12/15 14:00:13;;;;;;;;;;;;;;;;;;2215988;66;1197;-70
2021/12/15 14:02:58;;;;;;;;;;;;;;;;;;2216828;59;1268;-71
2021/12/15 14:05:33;;;;;;;;;;;;;;;;;;2217433;59;1239;-70
2021/12/15 14:08:07;;;;;;;;;;;;;;;;;;2217589;53;3514;-73
2021/12/15 14:10:58;;;;;;;;;;;;;;;;;;2214431;59;1200;-73
2021/12/15 14:13:43;;;;;;;;;;;;;;;;;;2214164;58;1600;-73
2021/12/15 14:16:17;;;;;;;;;;;;;;;;;;2212405;59;1618;-73
2021/12/15 14:18:53;;;;;;;;;;;;;;;;;;2210220;59;1777;-73
2021/12/15 14:21:26;;;;;;;;;;;;;;;;;;2213282;59;1719;-72
2021/12/15 14:23:59;;;;;;;;;;;;;;;;;;2211215;59;2452;-72
2021/12/15 14:26:34;;;;;;;;;;;;;;;;;;2213127;59;2380;-72
2021/12/15 14:29:09;;;;;;;;;;;;;;;;;;2214529;59;2425;-73
2021/12/15 14:31:43;;;;;;;;;;;;;;;;;;2213722;59;1772;-73
2021/12/15 14:34:21;;;;;;;;;;;;;;;;;;2213356;67;2000;-72
2021/12/15 14:36:55;;;;;;;;;;;;;;;;;;2214824;59;1155;-72
2021/12/15 14:39:31;;;;;;;;;;;;;;;;;;2213900;67;1176;-72
2021/12/15 14:42:07;;;;;;;;;;;;;;;;;;2214037;59;1280;-72
2021/12/15 14:44:43;;;;;;;;;;;;;;;;;;2213165;67;1112;-72
2021/12/15 14:47:17;;;;;;;;;;;;;;;;;;2212878;67;1136;-72
2021/12/15 14:49:54;;;;;;;;;;;;;;;;;;2212421;67;1051;-72
2021/12/15 14:52:29;;;;;;;;;;;;;;;;;;2211436;67;1830;-72
2021/12/15 14:55:06;;;;;;;;;;;;;;;;;;2212180;59;2027;-72
2021/12/15 14:57:39;;;;;;;;;;;;;;;;;;2214123;59;2451;-72
2021/12/15 15:00:15;;;;;;;;;;;;;;;;;;2214682;59;1413;-71
2021/12/15 15:02:49;;;;;;;;;;;;;;;;;;2214031;59;1243;-72
2021/12/15 15:05:27;;;;;;;;;;;;;;;;;;2213069;67;1120;-71
2021/12/15 15:08:02;;;;;;;;;;;;;;;;;;2213610;59;1511;-72
2021/12/15 15:10:36;;;;;;;;;;;;;;;;;;2213301;59;1165;-72
2021/12/15 15:13:09;;;;;;;;;;;;;;;;;;2213842;59;2036;-72
2021/12/15 15:15:45;;;;;;;;;;;;;;;;;;2213198;59;1980;-72
2021/12/15 15:18:25;;;;;;;;;;;;;;;;;;2212867;59;1357;-72
2021/12/15 15:21:02;;;;;;;;;;;;;;;;;;2212981;59;1686;-72
2021/12/15 15:23:36;;;;;;;;;;;;;;;;;;2212586;59;1203;-72
2021/12/15 15:26:10;;;;;;;;;;;;;;;;;;2211831;59;2438;-72
2021/12/15 15:28:45;;;;;;;;;;;;;;;;;;2212803;59;1762;-72
2021/12/15 15:31:19;;;;;;;;;;;;;;;;;;2213696;59;1680;-71
2021/12/15 15:33:52;;;;;;;;;;;;;;;;;;2213375;59;1135;-72
2021/12/15 15:36:31;;;;;;;;;;;;;;;;;;2212098;67;1982;-72
2021/12/15 15:39:04;;;;;;;;;;;;;;;;;;2213379;59;1419;-72
2021/12/15 15:41:38;;;;;;;;;;;;;;;;;;2213377;59;1310;-72
2021/12/15 15:44:11;;;;;;;;;;;;;;;;;;2213448;67;1089;-72
2021/12/15 15:46:49;;;;;;;;;;;;;;;;;;2214262;67;1363;-71
2021/12/15 15:49:23;;;;;;;;;;;;;;;;;;2213079;59;1571;-72
2021/12/15 15:52:04;;;;;;;;;;;;;;;;;;2211973;59;1452;-72
2021/12/15 15:54:37;;;;;;;;;;;;;;;;;;2210206;67;1968;-72
2021/12/15 15:57:10;;;;;;;;;;;;;;;;;;2211242;59;2107;-72
2021/12/15 15:59:44;;;;;;;;;;;;;;;;;;2213655;67;1179;-72
2021/12/15 16:02:17;;;;;;;;;;;;;;;;;;2214698;59;1252;-72
2021/12/15 16:04:51;;;;;;;;;;;;;;;;;;2209597;67;1473;-72
2021/12/15 16:07:26;;;;;;;;;;;;;;;;;;2214258;59;1280;-72
2021/12/15 16:10:00;;;;;;;;;;;;;;;;;;2213505;59;1204;-72
2021/12/15 16:12:36;;;;;;;;;;;;;;;;;;2214944;59;1400;-71
2021/12/15 16:15:10;;;;;;;;;;;;;;;;;;2214412;67;1983;-71
2021/12/15 16:17:54;;;;;;;;;;;;;;;;;;2213474;67;1201;-72
2021/12/15 16:20:58;;;;;;;;;;;;;;;;;;2213786;59;1586;-71
2021/12/15 16:23:28;;;;;;;;;;;;;;;;;;2212595;59;1714;-72
2021/12/15 16:26:03;;;;;;;;;;;;;;;;;;2213380;59;2681;-72
2021/12/15 16:28:38;;;;;;;;;;;;;;;;;;2213654;59;2345;-71
2021/12/15 16:31:12;;;;;;;;;;;;;;;;;;2214115;59;1525;-72
2021/12/15 16:33:48;;;;;;;;;;;;;;;;;;2214729;59;1292;-71
2021/12/15 16:36:23;;;;;;;;;;;;;;;;;;2214314;59;1925;-72
2021/12/15 16:38:59;;;;;;;;;;;;;;;;;;2213021;59;1709;-71
2021/12/15 16:41:35;;;;;;;;;;;;;;;;;;2214983;59;1532;-71
2021/12/15 16:44:19;;;;;;;;;;;;;;;;;;2212667;59;1321;-72
2021/12/15 16:46:54;;;;;;;;;;;;;;;;;;2213728;59;1210;-71
2021/12/15 16:49:29;;;;;;;;;;;;;;;;;;2212959;59;1779;-72
2021/12/15 16:52:06;;;;;;;;;;;;;;;;;;2213815;67;1260;-72
2021/12/15 16:54:44;;;;;;;;;;;;;;;;;;2209417;59;1924;-72
2021/12/15 16:57:20;;;;;;;;;;;;;;;;;;2213818;59;1713;-72
2021/12/15 16:59:55;;;;;;;;;;;;;;;;;;2209681;67;1224;-71
2021/12/15 17:02:30;;;;;;;;;;;;;;;;;;2214271;59;1307;-72
2021/12/15 17:05:04;;;;;;;;;;;;;;;;;;2213175;59;1335;-72
2021/12/15 17:07:38;;;;;;;;;;;;;;;;;;2213769;59;1190;-72
2021/12/15 17:10:16;;;;;;;;;;;;;;;;;;2213141;67;1237;-72
2021/12/15 17:12:57;;;;;;;;;;;;;;;;;;2214232;59;1587;-72
2021/12/15 17:15:39;;;;;;;;;;;;;;;;;;2212727;67;1990;-72
2021/12/15 17:18:18;;;;;;;;;;;;;;;;;;2214335;59;1817;-72
2021/12/15 17:20:52;;;;;;;;;;;;;;;;;;2213207;59;1524;-72
2021/12/15 17:23:27;;;;;;;;;;;;;;;;;;2214068;59;2183;-72
2021/12/15 17:26:04;;;;;;;;;;;;;;;;;;2213243;59;1729;-72
2021/12/15 17:28:38;;;;;;;;;;;;;;;;;;2212435;59;2633;-72
2021/12/15 17:31:12;;;;;;;;;;;;;;;;;;2212662;59;1671;-72
2021/12/15 17:33:47;;;;;;;;;;;;;;;;;;2211822;59;1727;-72
2021/12/15 17:36:26;;;;;;;;;;;;;;;;;;2213863;59;1933;-72
2021/12/15 17:39:08;;;;;;;;;;;;;;;;;;2213590;59;1532;-72
2021/12/15 17:41:47;;;;;;;;;;;;;;;;;;2213623;59;1745;-72
2021/12/15 17:44:22;;;;;;;;;;;;;;;;;;2212994;67;1386;-72
2021/12/15 17:46:59;;;;;;;;;;;;;;;;;;2209451;67;1300;-72
2021/12/15 17:49:34;;;;;;;;;;;;;;;;;;2213511;59;1101;-72
2021/12/15 17:52:12;;;;;;;;;;;;;;;;;;2214120;67;1189;-72
2021/12/15 17:54:49;;;;;;;;;;;;;;;;;;2213260;59;1615;-72
2021/12/15 17:57:26;;;;;;;;;;;;;;;;;;2213350;59;1939;-72
2021/12/15 17:59:59;;;;;;;;;;;;;;;;;;2212433;59;1211;-72
2021/12/15 18:02:33;;;;;;;;;;;;;;;;;;2212119;67;1110;-72
2021/12/15 18:05:07;;;;;;;;;;;;;;;;;;2211112;59;1714;-72
2021/12/15 18:07:40;;;;;;;;;;;;;;;;;;2213786;59;1242;-72
2021/12/15 18:10:27;;;;;;;;;;;;;;;;;;2212377;59;1110;-72
2021/12/15 18:13:03;;;;;;;;;;;;;;;;;;2213584;59;1324;-72
2021/12/15 18:15:37;;;;;;;;;;;;;;;;;;2212610;59;1936;-72
2021/12/15 18:18:11;;;;;;;;;;;;;;;;;;2212770;59;1770;-72
2021/12/15 18:20:45;;;;;;;;;;;;;;;;;;2208299;59;1624;-72
2021/12/15 18:23:19;;;;;;;;;;;;;;;;;;2212880;59;1215;-72
2021/12/15 18:25:53;;;;;;;;;;;;;;;;;;2213021;59;1112;-72
2021/12/15 18:28:29;;;;;;;;;;;;;;;;;;2212141;59;2661;-72
2021/12/15 18:31:04;;;;;;;;;;;;;;;;;;2212453;59;2307;-72
2021/12/15 18:33:37;;;;;;;;;;;;;;;;;;2209257;59;1747;-72
2021/12/15 18:36:11;;;;;;;;;;;;;;;;;;2212988;67;1990;-72
2021/12/15 18:38:45;;;;;;;;;;;;;;;;;;2211781;59;1910;-72
2021/12/15 18:41:25;;;;;;;;;;;;;;;;;;2213505;59;1806;-72
2021/12/15 18:44:04;;;;;;;;;;;;;;;;;;2213780;67;1196;-73
2021/12/15 18:46:38;;;;;;;;;;;;;;;;;;2212785;59;1373;-72
2021/12/15 18:49:15;;;;;;;;;;;;;;;;;;2212479;59;1091;-72
2021/12/15 18:51:49;;;;;;;;;;;;;;;;;;2212951;59;1158;-72
2021/12/15 18:54:23;;;;;;;;;;;;;;;;;;2212913;59;1310;-74
2021/12/15 18:56:58;;;;;;;;;;;;;;;;;;2212822;59;1941;-72
2021/12/15 18:59:34;;;;;;;;;;;;;;;;;;2212749;59;1282;-73
2021/12/15 19:02:09;;;;;;;;;;;;;;;;;;2213959;59;1200;-72
2021/12/15 19:04:43;;;;;;;;;;;;;;;;;;2212722;59;1727;-72
2021/12/15 19:07:18;;;;;;;;;;;;;;;;;;2211728;59;1252;-71
2021/12/15 19:09:52;;;;;;;;;;;;;;;;;;2212684;67;1143;-72
2021/12/15 19:12:26;;;;;;;;;;;;;;;;;;2213898;59;1801;-72
2021/12/15 19:15:02;;;;;;;;;;;;;;;;;;2213407;59;1210;-71
2021/12/15 19:17:35;;;;;;;;;;;;;;;;;;2212373;59;1987;-72